Рождествено

Карта отелей и гостиниц, располагающихся рядом с аэропортом Рождествено :

Рождествено
Самара
Самарская область 53° 14' 53.4588" N, 50° 3' 0.6588" E
Код аэродрома ИКАО
XWWD
Код аэродрома RU
ЬВВД
Координаты
N53.24818° E050.05018°
Превышение над уровнем моря
42
Основная полоса
04/22
Курс магнитный
044,2/224,2
Длина основной ВПП
725
Ширина основной ВПП
40
Покрытие основной ВПП
Нетвёрдое (грунт)
Освещение ВПП
Нет
Тип: 
Аэродром
Класс аэродрома: 
Принадлежность: 
МО
Статус: 
Действующий
Сайт: 
E-mail аэродрома: 
Страна: 
Россия
Регион: 
Самарская область
Город: 
Самара
Дополнительная информация: 
Гражданский индекс: UWWR / УВВР.

Найти трансфер

С помощью этой формы Вы можете найти трансфер из аэропорта Рождествено в город, аэропорт или вокзал:

Карта места

Javascript is required to view this map.

Погода в аэропортах:

Авиационная погода во Владикавказе

Регион: 
Погода METAR: 
URMO 171630Z 19002MPS 160V240 9999 -RA OVC018 11/09 Q1022 R27/290150 NOSIG RMK QFE721/0962
Время наблюдения
2021-04-17T16:30:00Z
Температура C
11.0
Точка росы
9.0
Направление ветра
190
Скорость ветра (узлы)
4
Метео видимость
6.21
Явления погоды
-RA
Условия полета
MVFR
Аэропорт подробнее: 

Авиационная погода в Ботсфьорде

Регион: 
Погода METAR: 
ENBS 161920Z 27037G47KT 9999 VCSH SCT020 SCT041 03/01 Q1023
Время наблюдения
2021-04-16T19:20:00Z
Температура C
3.0
Точка росы
1.0
Направление ветра
270
Скорость ветра (узлы)
37
Метео видимость
6.21
Явления погоды
VCSH
Условия полета
VFR

Авиационная погода в Сочи

Регион: 
Погода METAR: 
URSS 171630Z 08002MPS 6000 -SHRA SCT011 OVC040CB 12/10 Q1021 WS ALL RWY R06/290060 R02/290060 NOSIG RMK R02/06002MPS MT OBSC QFE764
Время наблюдения
2021-04-17T16:30:00Z
Температура C
12.0
Точка росы
10.0
Направление ветра
80
Скорость ветра (узлы)
4
Метео видимость
3.73
Явления погоды
-SHRA
Условия полета
MVFR
Аэропорт подробнее: 

Авиационная погода в Полярном

Регион: 
Погода METAR: 
UERP 171700Z 30006G12MPS 9999 -SHSN DRSN BKN017CB OVC100 M12/M14 Q0995 NOSIG RMK QFE702
Время наблюдения
2021-04-17T17:00:00Z
Температура C
-12.0
Точка росы
-14.0
Направление ветра
300
Скорость ветра (узлы)
12
Метео видимость
6.21
Явления погоды
-SHSN DRSN
Условия полета
MVFR
Аэропорт подробнее: